sensor_id;sensor_type;location;lat;lon;timestamp;pressure;altitude;pressure_sealevel;temperature;humidity
33153;BME280;19509;43.862;26.176;2023-04-15T00:02:23;99987.56;;;11.76;73.38
33153;BME280;19509;43.862;26.176;2023-04-15T00:04:48;99996.00;;;11.79;73.63
33153;BME280;19509;43.862;26.176;2023-04-15T00:07:14;99992.25;;;11.80;73.73
33153;BME280;19509;43.862;26.176;2023-04-15T00:09:41;100007.53;;;11.87;73.42
33153;BME280;19509;43.862;26.176;2023-04-15T00:12:07;99984.31;;;11.97;73.16
33153;BME280;19509;43.862;26.176;2023-04-15T00:14:34;99980.31;;;11.88;73.80
33153;BME280;19509;43.862;26.176;2023-04-15T00:17:01;99984.16;;;11.69;74.77
33153;BME280;19509;43.862;26.176;2023-04-15T00:19:28;99970.47;;;11.82;73.19
33153;BME280;19509;43.862;26.176;2023-04-15T00:21:54;99953.00;;;12.08;70.34
33153;BME280;19509;43.862;26.176;2023-04-15T00:24:20;99933.16;;;12.38;69.38
33153;BME280;19509;43.862;26.176;2023-04-15T00:26:45;99924.41;;;12.59;68.08
33153;BME280;19509;43.862;26.176;2023-04-15T00:29:11;99924.13;;;12.72;66.26
33153;BME280;19509;43.862;26.176;2023-04-15T00:31:36;99928.16;;;12.87;66.41
33153;BME280;19509;43.862;26.176;2023-04-15T00:34:02;99932.53;;;12.88;65.97
33153;BME280;19509;43.862;26.176;2023-04-15T00:36:27;99936.03;;;12.88;65.71
33153;BME280;19509;43.862;26.176;2023-04-15T00:38:53;99950.59;;;12.87;65.36
33153;BME280;19509;43.862;26.176;2023-04-15T00:41:19;99947.75;;;12.94;65.14
33153;BME280;19509;43.862;26.176;2023-04-15T00:43:45;99940.72;;;12.93;64.13
33153;BME280;19509;43.862;26.176;2023-04-15T00:46:12;99949.16;;;12.96;64.63
33153;BME280;19509;43.862;26.176;2023-04-15T00:48:39;99954.81;;;12.95;64.44
33153;BME280;19509;43.862;26.176;2023-04-15T00:51:05;99958.66;;;12.99;63.96
33153;BME280;19509;43.862;26.176;2023-04-15T00:53:31;99966.28;;;13.02;64.65
33153;BME280;19509;43.862;26.176;2023-04-15T00:55:56;99965.94;;;12.98;64.53
33153;BME280;19509;43.862;26.176;2023-04-15T00:58:22;99969.13;;;12.95;64.52
33153;BME280;19509;43.862;26.176;2023-04-15T01:00:48;99964.69;;;12.89;65.23
33153;BME280;19509;43.862;26.176;2023-04-15T01:03:13;99959.53;;;12.88;64.52
33153;BME280;19509;43.862;26.176;2023-04-15T01:05:39;99963.28;;;12.87;64.96
33153;BME280;19509;43.862;26.176;2023-04-15T01:08:06;99975.28;;;12.79;65.80
33153;BME280;19509;43.862;26.176;2023-04-15T01:10:32;99958.53;;;12.65;65.32
33153;BME280;19509;43.862;26.176;2023-04-15T01:12:57;99965.28;;;12.39;66.54
33153;BME280;19509;43.862;26.176;2023-04-15T01:15:23;99968.78;;;12.51;67.19
33153;BME280;19509;43.862;26.176;2023-04-15T01:17:49;99971.41;;;12.35;67.81
33153;BME280;19509;43.862;26.176;2023-04-15T01:20:14;99963.56;;;12.21;68.16
33153;BME280;19509;43.862;26.176;2023-04-15T01:22:41;99963.81;;;12.20;68.53
33153;BME280;19509;43.862;26.176;2023-04-15T01:25:11;99966.94;;;12.28;68.04
33153;BME280;19509;43.862;26.176;2023-04-15T01:27:38;99967.78;;;12.17;69.61
33153;BME280;19509;43.862;26.176;2023-04-15T01:30:06;99969.31;;;11.90;71.65
33153;BME280;19509;43.862;26.176;2023-04-15T01:32:32;99977.66;;;11.46;72.86
33153;BME280;19509;43.862;26.176;2023-04-15T01:34:57;99989.75;;;11.67;72.06
33153;BME280;19509;43.862;26.176;2023-04-15T01:37:23;99992.59;;;11.72;71.89
33153;BME280;19509;43.862;26.176;2023-04-15T01:39:49;100013.00;;;11.80;71.22
33153;BME280;19509;43.862;26.176;2023-04-15T01:42:15;100007.72;;;11.73;71.91
33153;BME280;19509;43.862;26.176;2023-04-15T01:44:41;100009.97;;;11.88;71.86
33153;BME280;19509;43.862;26.176;2023-04-15T01:47:06;100006.06;;;11.72;72.83
33153;BME280;19509;43.862;26.176;2023-04-15T01:49:33;99996.63;;;11.51;73.84
33153;BME280;19509;43.862;26.176;2023-04-15T01:51:58;99982.63;;;11.31;76.17
33153;BME280;19509;43.862;26.176;2023-04-15T01:54:25;99988.19;;;11.36;75.77
33153;BME280;19509;43.862;26.176;2023-04-15T01:56:51;100004.25;;;11.12;76.91
33153;BME280;19509;43.862;26.176;2023-04-15T01:59:17;100004.94;;;11.38;75.41
33153;BME280;19509;43.862;26.176;2023-04-15T02:01:43;100015.75;;;11.20;76.08
33153;BME280;19509;43.862;26.176;2023-04-15T02:04:10;100024.09;;;11.00;77.17
33153;BME280;19509;43.862;26.176;2023-04-15T02:06:42;100023.88;;;11.01;77.73
33153;BME280;19509;43.862;26.176;2023-04-15T02:09:08;100022.47;;;10.99;77.89
33153;BME280;19509;43.862;26.176;2023-04-15T02:11:34;100029.09;;;10.96;77.89
33153;BME280;19509;43.862;26.176;2023-04-15T02:14:01;99998.84;;;10.82;78.10
33153;BME280;19509;43.862;26.176;2023-04-15T02:16:27;100006.16;;;10.94;78.65
33153;BME280;19509;43.862;26.176;2023-04-15T02:18:52;99991.53;;;10.71;79.27
33153;BME280;19509;43.862;26.176;2023-04-15T02:21:17;99993.91;;;10.79;79.38
33153;BME280;19509;43.862;26.176;2023-04-15T02:23:43;99985.78;;;10.68;80.30
33153;BME280;19509;43.862;26.176;2023-04-15T02:26:11;99995.78;;;10.42;81.28
33153;BME280;19509;43.862;26.176;2023-04-15T02:28:37;99994.22;;;10.34;82.03
33153;BME280;19509;43.862;26.176;2023-04-15T02:31:06;100007.16;;;10.44;81.77
33153;BME280;19509;43.862;26.176;2023-04-15T02:33:32;100015.00;;;10.46;81.62
33153;BME280;19509;43.862;26.176;2023-04-15T02:35:58;100033.59;;;10.22;82.81
33153;BME280;19509;43.862;26.176;2023-04-15T02:38:24;100032.81;;;10.47;81.82
33153;BME280;19509;43.862;26.176;2023-04-15T02:40:49;100039.59;;;10.68;81.29
33153;BME280;19509;43.862;26.176;2023-04-15T02:43:15;100039.59;;;10.68;80.89
33153;BME280;19509;43.862;26.176;2023-04-15T02:45:42;100029.13;;;10.59;80.96
33153;BME280;19509;43.862;26.176;2023-04-15T02:48:08;100000.59;;;10.40;81.63
33153;BME280;19509;43.862;26.176;2023-04-15T02:50:34;99978.09;;;10.34;82.33
33153;BME280;19509;43.862;26.176;2023-04-15T02:53:00;99960.16;;;10.47;81.75
33153;BME280;19509;43.862;26.176;2023-04-15T02:55:27;99947.97;;;10.26;82.38
33153;BME280;19509;43.862;26.176;2023-04-15T02:57:52;99973.31;;;10.11;83.02
33153;BME280;19509;43.862;26.176;2023-04-15T03:00:18;100005.88;;;10.03;83.16
33153;BME280;19509;43.862;26.176;2023-04-15T03:02:45;100027.81;;;10.00;83.93
33153;BME280;19509;43.862;26.176;2023-04-15T03:05:12;100031.56;;;9.99;84.04
33153;BME280;19509;43.862;26.176;2023-04-15T03:07:37;100036.81;;;10.12;83.41
33153;BME280;19509;43.862;26.176;2023-04-15T03:10:05;100029.72;;;10.18;83.12
33153;BME280;19509;43.862;26.176;2023-04-15T03:12:31;100032.91;;;10.08;83.24
33153;BME280;19509;43.862;26.176;2023-04-15T03:14:56;100008.13;;;10.06;83.19
33153;BME280;19509;43.862;26.176;2023-04-15T03:17:22;100004.31;;;10.14;82.85
33153;BME280;19509;43.862;26.176;2023-04-15T03:19:47;100005.69;;;10.23;82.33
33153;BME280;19509;43.862;26.176;2023-04-15T03:22:13;100020.63;;;10.19;82.56
33153;BME280;19509;43.862;26.176;2023-04-15T03:24:38;100006.13;;;10.20;81.89
33153;BME280;19509;43.862;26.176;2023-04-15T03:27:04;100020.97;;;10.04;82.77
33153;BME280;19509;43.862;26.176;2023-04-15T03:29:30;100033.97;;;10.07;82.44
33153;BME280;19509;43.862;26.176;2023-04-15T03:31:56;100047.25;;;10.02;82.19
33153;BME280;19509;43.862;26.176;2023-04-15T03:34:21;100052.50;;;9.90;82.78
33153;BME280;19509;43.862;26.176;2023-04-15T03:36:47;100070.78;;;9.82;83.29
33153;BME280;19509;43.862;26.176;2023-04-15T03:39:13;100053.31;;;9.91;83.30
33153;BME280;19509;43.862;26.176;2023-04-15T03:41:38;100061.81;;;9.88;83.30
33153;BME280;19509;43.862;26.176;2023-04-15T03:44:03;100064.69;;;9.93;83.44
33153;BME280;19509;43.862;26.176;2023-04-15T03:46:29;100057.97;;;10.09;83.09
33153;BME280;19509;43.862;26.176;2023-04-15T03:48:55;100061.41;;;10.16;82.66
33153;BME280;19509;43.862;26.176;2023-04-15T03:51:20;100062.38;;;10.22;82.41
33153;BME280;19509;43.862;26.176;2023-04-15T03:53:46;100057.19;;;10.27;81.73
33153;BME280;19509;43.862;26.176;2023-04-15T03:56:12;100072.91;;;10.30;82.13
33153;BME280;19509;43.862;26.176;2023-04-15T03:58:37;100066.16;;;10.39;81.68
33153;BME280;19509;43.862;26.176;2023-04-15T04:01:03;100067.41;;;10.43;81.69
33153;BME280;19509;43.862;26.176;2023-04-15T04:03:28;100061.16;;;10.42;81.46
33153;BME280;19509;43.862;26.176;2023-04-15T04:05:54;100055.53;;;10.51;81.08
33153;BME280;19509;43.862;26.176;2023-04-15T04:08:20;100054.59;;;10.38;80.96
33153;BME280;19509;43.862;26.176;2023-04-15T04:10:46;100066.81;;;9.84;83.27
33153;BME280;19509;43.862;26.176;2023-04-15T04:13:11;100066.66;;;9.79;83.23
33153;BME280;19509;43.862;26.176;2023-04-15T04:15:37;100060.63;;;9.84;83.32
33153;BME280;19509;43.862;26.176;2023-04-15T04:18:02;100063.91;;;9.86;84.24
33153;BME280;19509;43.862;26.176;2023-04-15T04:20:28;100068.97;;;10.01;83.66
33153;BME280;19509;43.862;26.176;2023-04-15T04:22:56;100064.25;;;10.21;83.07
33153;BME280;19509;43.862;26.176;2023-04-15T04:25:22;100060.28;;;10.30;82.54
33153;BME280;19509;43.862;26.176;2023-04-15T04:27:47;100065.53;;;10.44;82.09
33153;BME280;19509;43.862;26.176;2023-04-15T04:30:13;100065.16;;;10.40;83.24
33153;BME280;19509;43.862;26.176;2023-04-15T04:32:38;100059.53;;;10.41;82.70
33153;BME280;19509;43.862;26.176;2023-04-15T04:35:04;100068.41;;;10.42;82.21
33153;BME280;19509;43.862;26.176;2023-04-15T04:37:30;100079.94;;;10.49;82.28
33153;BME280;19509;43.862;26.176;2023-04-15T04:39:55;100081.59;;;10.69;82.31
33153;BME280;19509;43.862;26.176;2023-04-15T04:42:21;100078.72;;;10.70;82.34
33153;BME280;19509;43.862;26.176;2023-04-15T04:44:47;100088.94;;;10.98;81.69
33153;BME280;19509;43.862;26.176;2023-04-15T04:47:12;100094.00;;;11.25;81.41
33153;BME280;19509;43.862;26.176;2023-04-15T04:49:38;100095.84;;;11.43;80.86
33153;BME280;19509;43.862;26.176;2023-04-15T04:52:04;100110.56;;;11.58;79.63
33153;BME280;19509;43.862;26.176;2023-04-15T04:54:29;100113.44;;;11.75;79.57
33153;BME280;19509;43.862;26.176;2023-04-15T04:56:55;100113.75;;;11.86;79.05
33153;BME280;19509;43.862;26.176;2023-04-15T04:59:22;100108.09;;;11.87;78.20
33153;BME280;19509;43.862;26.176;2023-04-15T05:01:48;100097.22;;;11.94;78.06
33153;BME280;19509;43.862;26.176;2023-04-15T05:04:13;100092.19;;;12.09;77.46
33153;BME280;19509;43.862;26.176;2023-04-15T05:06:39;100099.25;;;12.22;76.55
33153;BME280;19509;43.862;26.176;2023-04-15T05:09:04;100119.09;;;12.27;76.44
33153;BME280;19509;43.862;26.176;2023-04-15T05:11:30;100125.44;;;12.45;76.52
33153;BME280;19509;43.862;26.176;2023-04-15T05:13:56;100120.41;;;12.60;75.86
33153;BME280;19509;43.862;26.176;2023-04-15T05:16:22;100105.81;;;12.73;75.59
33153;BME280;19509;43.862;26.176;2023-04-15T05:18:47;100105.13;;;12.77;75.89
33153;BME280;19509;43.862;26.176;2023-04-15T05:21:13;100115.69;;;12.79;74.90
33153;BME280;19509;43.862;26.176;2023-04-15T05:23:39;100127.31;;;12.79;75.34
33153;BME280;19509;43.862;26.176;2023-04-15T05:26:04;100124.38;;;12.81;75.14
33153;BME280;19509;43.862;26.176;2023-04-15T05:28:30;100113.94;;;12.85;74.53
33153;BME280;19509;43.862;26.176;2023-04-15T05:30:56;100119.56;;;12.83;74.36
33153;BME280;19509;43.862;26.176;2023-04-15T05:33:22;100128.00;;;12.87;74.97
33153;BME280;19509;43.862;26.176;2023-04-15T05:35:47;100133.28;;;12.93;74.79
33153;BME280;19509;43.862;26.176;2023-04-15T05:38:13;100136.44;;;13.02;74.95
33153;BME280;19509;43.862;26.176;2023-04-15T05:40:38;100139.72;;;13.04;74.20
33153;BME280;19509;43.862;26.176;2023-04-15T05:43:04;100157.94;;;13.09;75.60
33153;BME280;19509;43.862;26.176;2023-04-15T05:45:29;100154.63;;;13.18;74.80
33153;BME280;19509;43.862;26.176;2023-04-15T05:47:55;100162.38;;;13.27;74.58
33153;BME280;19509;43.862;26.176;2023-04-15T05:50:20;100160.25;;;13.40;74.42
33153;BME280;19509;43.862;26.176;2023-04-15T05:52:46;100162.34;;;13.50;74.12
33153;BME280;19509;43.862;26.176;2023-04-15T05:55:11;100132.19;;;13.58;73.10
33153;BME280;19509;43.862;26.176;2023-04-15T05:57:38;100134.53;;;13.66;72.40
33153;BME280;19509;43.862;26.176;2023-04-15T06:00:04;100137.75;;;13.80;72.10
33153;BME280;19509;43.862;26.176;2023-04-15T06:02:30;100135.44;;;14.01;71.01
33153;BME280;19509;43.862;26.176;2023-04-15T06:04:56;100143.47;;;14.12;70.95
33153;BME280;19509;43.862;26.176;2023-04-15T06:07:22;100149.16;;;14.28;70.44
33153;BME280;19509;43.862;26.176;2023-04-15T06:09:48;100159.97;;;14.44;69.90
33153;BME280;19509;43.862;26.176;2023-04-15T06:12:14;100166.25;;;14.62;70.10
33153;BME280;19509;43.862;26.176;2023-04-15T06:14:40;100173.84;;;14.82;69.43
33153;BME280;19509;43.862;26.176;2023-04-15T06:17:05;100168.97;;;15.01;68.49
33153;BME280;19509;43.862;26.176;2023-04-15T06:19:32;100166.84;;;15.25;67.94
33153;BME280;19509;43.862;26.176;2023-04-15T06:21:57;100176.00;;;15.41;67.54
33153;BME280;19509;43.862;26.176;2023-04-15T06:24:23;100175.00;;;15.47;66.23
33153;BME280;19509;43.862;26.176;2023-04-15T06:26:49;100161.75;;;15.28;66.09
33153;BME280;19509;43.862;26.176;2023-04-15T06:29:14;100172.03;;;15.48;66.21
33153;BME280;19509;43.862;26.176;2023-04-15T06:31:40;100163.41;;;15.73;64.87
33153;BME280;19509;43.862;26.176;2023-04-15T06:34:06;100163.00;;;15.87;64.04
33153;BME280;19509;43.862;26.176;2023-04-15T06:36:31;100163.41;;;16.00;62.51
33153;BME280;19509;43.862;26.176;2023-04-15T06:38:57;100165.81;;;15.97;63.13
33153;BME280;19509;43.862;26.176;2023-04-15T06:41:22;100163.97;;;16.02;62.67
33153;BME280;19509;43.862;26.176;2023-04-15T06:43:48;100174.34;;;16.38;62.15
33153;BME280;19509;43.862;26.176;2023-04-15T06:46:14;100175.13;;;16.70;60.17
33153;BME280;19509;43.862;26.176;2023-04-15T06:48:39;100172.03;;;16.89;60.15
33153;BME280;19509;43.862;26.176;2023-04-15T06:51:05;100161.69;;;16.86;60.02
33153;BME280;19509;43.862;26.176;2023-04-15T06:53:31;100161.53;;;17.02;60.05
33153;BME280;19509;43.862;26.176;2023-04-15T06:55:56;100164.31;;;17.18;60.51
33153;BME280;19509;43.862;26.176;2023-04-15T06:58:22;100163.78;;;17.16;59.64
33153;BME280;19509;43.862;26.176;2023-04-15T07:00:48;100169.69;;;17.02;57.40
33153;BME280;19509;43.862;26.176;2023-04-15T07:03:13;100179.75;;;17.07;57.69
33153;BME280;19509;43.862;26.176;2023-04-15T07:05:39;100167.06;;;17.28;57.46
33153;BME280;19509;43.862;26.176;2023-04-15T07:08:05;100175.03;;;17.40;56.83
33153;BME280;19509;43.862;26.176;2023-04-15T07:10:32;100179.66;;;17.44;58.00
33153;BME280;19509;43.862;26.176;2023-04-15T07:12:58;100170.16;;;17.47;57.04
33153;BME280;19509;43.862;26.176;2023-04-15T07:15:23;100175.56;;;17.42;57.38
33153;BME280;19509;43.862;26.176;2023-04-15T07:17:49;100181.66;;;17.64;56.12
33153;BME280;19509;43.862;26.176;2023-04-15T07:20:15;100178.41;;;17.67;57.14
33153;BME280;19509;43.862;26.176;2023-04-15T07:22:40;100184.69;;;17.73;55.62
33153;BME280;19509;43.862;26.176;2023-04-15T07:25:06;100185.09;;;17.44;53.37
33153;BME280;19509;43.862;26.176;2023-04-15T07:27:32;100179.13;;;17.53;55.63
33153;BME280;19509;43.862;26.176;2023-04-15T07:29:58;100170.47;;;17.61;54.52
33153;BME280;19509;43.862;26.176;2023-04-15T07:32:23;100178.19;;;17.79;53.01
33153;BME280;19509;43.862;26.176;2023-04-15T07:34:49;100188.06;;;18.01;53.90
33153;BME280;19509;43.862;26.176;2023-04-15T07:37:14;100194.13;;;17.55;52.41
33153;BME280;19509;43.862;26.176;2023-04-15T07:39:40;100190.91;;;17.68;50.67
33153;BME280;19509;43.862;26.176;2023-04-15T07:42:06;100196.09;;;17.70;50.37
33153;BME280;19509;43.862;26.176;2023-04-15T07:44:31;100197.97;;;17.64;51.20
33153;BME280;19509;43.862;26.176;2023-04-15T07:46:57;100209.78;;;17.80;52.33
33153;BME280;19509;43.862;26.176;2023-04-15T07:49:22;100206.84;;;18.12;51.11
33153;BME280;19509;43.862;26.176;2023-04-15T07:51:48;100209.53;;;17.92;50.71
33153;BME280;19509;43.862;26.176;2023-04-15T07:54:14;100215.03;;;18.07;49.00
33153;BME280;19509;43.862;26.176;2023-04-15T07:56:40;100218.28;;;18.09;49.07
33153;BME280;19509;43.862;26.176;2023-04-15T07:59:06;100223.22;;;18.28;47.62
33153;BME280;19509;43.862;26.176;2023-04-15T08:01:33;100217.50;;;18.14;47.36
33153;BME280;19509;43.862;26.176;2023-04-15T08:03:59;100230.81;;;18.20;47.88
33153;BME280;19509;43.862;26.176;2023-04-15T08:06:24;100227.84;;;18.48;47.02
33153;BME280;19509;43.862;26.176;2023-04-15T08:08:50;100227.59;;;18.64;45.78
33153;BME280;19509;43.862;26.176;2023-04-15T08:11:16;100235.25;;;18.62;47.16
33153;BME280;19509;43.862;26.176;2023-04-15T08:13:41;100245.06;;;18.84;47.06
33153;BME280;19509;43.862;26.176;2023-04-15T08:16:24;100242.59;;;18.98;47.05
33153;BME280;19509;43.862;26.176;2023-04-15T08:18:53;100243.41;;;18.67;44.25
33153;BME280;19509;43.862;26.176;2023-04-15T08:21:19;100242.88;;;18.55;47.68
33153;BME280;19509;43.862;26.176;2023-04-15T08:23:46;100248.00;;;18.21;47.59
33153;BME280;19509;43.862;26.176;2023-04-15T08:26:13;100246.63;;;18.34;48.36
33153;BME280;19509;43.862;26.176;2023-04-15T08:28:44;100246.84;;;18.07;47.60
33153;BME280;19509;43.862;26.176;2023-04-15T08:31:11;100249.75;;;17.80;50.31
33153;BME280;19509;43.862;26.176;2023-04-15T08:33:36;100252.50;;;17.85;51.77
33153;BME280;19509;43.862;26.176;2023-04-15T08:36:02;100248.16;;;17.89;52.12
33153;BME280;19509;43.862;26.176;2023-04-15T08:38:28;100250.69;;;18.16;51.10
33153;BME280;19509;43.862;26.176;2023-04-15T08:40:54;100251.50;;;18.16;51.52
33153;BME280;19509;43.862;26.176;2023-04-15T08:43:26;100261.38;;;18.43;50.07
33153;BME280;19509;43.862;26.176;2023-04-15T08:45:53;100259.69;;;18.27;50.48
33153;BME280;19509;43.862;26.176;2023-04-15T08:48:19;100262.72;;;18.35;50.63
33153;BME280;19509;43.862;26.176;2023-04-15T08:50:46;100249.91;;;18.36;49.12
33153;BME280;19509;43.862;26.176;2023-04-15T08:53:13;100256.78;;;17.70;51.60
33153;BME280;19509;43.862;26.176;2023-04-15T08:55:43;100255.84;;;17.97;53.66
33153;BME280;19509;43.862;26.176;2023-04-15T08:58:13;100262.19;;;18.38;52.21
33153;BME280;19509;43.862;26.176;2023-04-15T09:00:41;100262.47;;;18.47;50.65
33153;BME280;19509;43.862;26.176;2023-04-15T09:03:07;100263.81;;;18.29;49.36
33153;BME280;19509;43.862;26.176;2023-04-15T09:05:34;100275.31;;;18.62;50.32
33153;BME280;19509;43.862;26.176;2023-04-15T09:08:01;100278.00;;;18.41;48.73
33153;BME280;19509;43.862;26.176;2023-04-15T09:10:27;100279.34;;;18.29;49.12
33153;BME280;19509;43.862;26.176;2023-04-15T09:12:53;100273.31;;;18.22;52.24
33153;BME280;19509;43.862;26.176;2023-04-15T09:15:19;100278.56;;;18.49;50.93
33153;BME280;19509;43.862;26.176;2023-04-15T09:17:45;100277.19;;;18.41;49.18
33153;BME280;19509;43.862;26.176;2023-04-15T09:20:15;100281.00;;;18.60;50.66
33153;BME280;19509;43.862;26.176;2023-04-15T09:22:45;100277.47;;;18.55;49.42
33153;BME280;19509;43.862;26.176;2023-04-15T09:25:25;100284.06;;;18.95;47.42
33153;BME280;19509;43.862;26.176;2023-04-15T09:27:56;100286.50;;;19.27;48.25
33153;BME280;19509;43.862;26.176;2023-04-15T09:30:22;100292.22;;;19.30;48.01
33153;BME280;19509;43.862;26.176;2023-04-15T09:32:59;100294.16;;;18.89;46.25
33153;BME280;19509;43.862;26.176;2023-04-15T09:35:26;100290.59;;;19.14;48.76
33153;BME280;19509;43.862;26.176;2023-04-15T09:37:53;100298.19;;;19.37;45.99
33153;BME280;19509;43.862;26.176;2023-04-15T09:40:36;100294.13;;;19.25;44.78
33153;BME280;19509;43.862;26.176;2023-04-15T09:43:05;100286.72;;;19.46;42.52
33153;BME280;19509;43.862;26.176;2023-04-15T09:45:32;100291.16;;;19.06;44.02
33153;BME280;19509;43.862;26.176;2023-04-15T09:47:59;100273.16;;;18.84;44.68
33153;BME280;19509;43.862;26.176;2023-04-15T09:50:28;100273.41;;;18.62;44.54
33153;BME280;19509;43.862;26.176;2023-04-15T09:52:54;100277.75;;;18.58;46.57
33153;BME280;19509;43.862;26.176;2023-04-15T09:55:20;100278.03;;;18.67;42.14
33153;BME280;19509;43.862;26.176;2023-04-15T09:57:46;100278.06;;;18.98;43.22
33153;BME280;19509;43.862;26.176;2023-04-15T10:00:12;100272.88;;;18.76;43.37
33153;BME280;19509;43.862;26.176;2023-04-15T10:02:41;100289.75;;;19.34;44.74
33153;BME280;19509;43.862;26.176;2023-04-15T10:05:13;100274.94;;;19.66;40.55
33153;BME280;19509;43.862;26.176;2023-04-15T10:07:39;100278.88;;;19.03;40.93
33153;BME280;19509;43.862;26.176;2023-04-15T10:10:08;100270.13;;;19.01;42.33
33153;BME280;19509;43.862;26.176;2023-04-15T10:12:37;100271.78;;;19.02;44.67
33153;BME280;19509;43.862;26.176;2023-04-15T10:15:04;100263.31;;;19.14;43.31
33153;BME280;19509;43.862;26.176;2023-04-15T10:17:32;100272.84;;;19.22;41.11
33153;BME280;19509;43.862;26.176;2023-04-15T10:20:03;100270.31;;;19.61;41.63
33153;BME280;19509;43.862;26.176;2023-04-15T10:22:30;100267.00;;;19.74;38.45
33153;BME280;19509;43.862;26.176;2023-04-15T10:24:56;100269.56;;;19.30;42.64
33153;BME280;19509;43.862;26.176;2023-04-15T10:27:23;100266.06;;;18.94;40.61
33153;BME280;19509;43.862;26.176;2023-04-15T10:29:49;100261.16;;;18.96;42.04
33153;BME280;19509;43.862;26.176;2023-04-15T10:32:17;100261.13;;;19.26;39.96
33153;BME280;19509;43.862;26.176;2023-04-15T10:34:46;100264.94;;;19.25;41.48
33153;BME280;19509;43.862;26.176;2023-04-15T10:37:19;100270.81;;;19.78;43.95
33153;BME280;19509;43.862;26.176;2023-04-15T10:39:45;100265.34;;;19.78;44.94
33153;BME280;19509;43.862;26.176;2023-04-15T10:42:14;100266.75;;;19.66;37.10
33153;BME280;19509;43.862;26.176;2023-04-15T10:44:42;100265.41;;;19.63;41.52
33153;BME280;19509;43.862;26.176;2023-04-15T10:47:13;100263.78;;;19.52;42.89
33153;BME280;19509;43.862;26.176;2023-04-15T10:49:43;100258.31;;;19.52;42.30
33153;BME280;19509;43.862;26.176;2023-04-15T10:52:09;100270.25;;;19.76;43.18
33153;BME280;19509;43.862;26.176;2023-04-15T10:54:35;100264.28;;;19.74;40.03
33153;BME280;19509;43.862;26.176;2023-04-15T10:59:33;100262.50;;;19.13;40.14
33153;BME280;19509;43.862;26.176;2023-04-15T11:02:02;100265.50;;;19.12;41.90
33153;BME280;19509;43.862;26.176;2023-04-15T11:04:50;100270.34;;;19.46;41.85
33153;BME280;19509;43.862;26.176;2023-04-15T11:10:03;100267.19;;;20.43;37.21
33153;BME280;19509;43.862;26.176;2023-04-15T11:12:35;100260.63;;;20.44;37.66
33153;BME280;19509;43.862;26.176;2023-04-15T11:15:41;100257.38;;;20.81;37.51
33153;BME280;19509;43.862;26.176;2023-04-15T11:18:12;100260.75;;;20.23;36.85
33153;BME280;19509;43.862;26.176;2023-04-15T11:20:39;100267.50;;;19.92;40.13
33153;BME280;19509;43.862;26.176;2023-04-15T11:23:06;100272.53;;;20.19;36.77
33153;BME280;19509;43.862;26.176;2023-04-15T11:25:34;100273.00;;;20.31;40.69
33153;BME280;19509;43.862;26.176;2023-04-15T11:28:00;100267.91;;;20.14;39.39
33153;BME280;19509;43.862;26.176;2023-04-15T11:30:29;100273.47;;;19.99;41.44
33153;BME280;19509;43.862;26.176;2023-04-15T11:33:01;100260.81;;;20.63;40.92
33153;BME280;19509;43.862;26.176;2023-04-15T11:35:28;100264.22;;;20.78;39.05
33153;BME280;19509;43.862;26.176;2023-04-15T11:37:54;100263.97;;;20.75;39.30
33153;BME280;19509;43.862;26.176;2023-04-15T11:40:28;100263.69;;;21.06;38.92
33153;BME280;19509;43.862;26.176;2023-04-15T11:43:16;100273.59;;;21.31;37.78
33153;BME280;19509;43.862;26.176;2023-04-15T11:45:55;100275.16;;;21.42;38.33
33153;BME280;19509;43.862;26.176;2023-04-15T11:48:23;100269.84;;;21.21;38.73
33153;BME280;19509;43.862;26.176;2023-04-15T11:51:05;100265.78;;;21.48;35.09
33153;BME280;19509;43.862;26.176;2023-04-15T11:53:46;100255.03;;;20.98;33.85
33153;BME280;19509;43.862;26.176;2023-04-15T11:56:22;100256.84;;;20.79;36.04
33153;BME280;19509;43.862;26.176;2023-04-15T11:58:53;100249.88;;;21.21;37.83
33153;BME280;19509;43.862;26.176;2023-04-15T12:01:32;100240.69;;;21.84;35.03
33153;BME280;19509;43.862;26.176;2023-04-15T12:03:59;100258.16;;;22.12;33.89
33153;BME280;19509;43.862;26.176;2023-04-15T12:06:31;100257.44;;;21.34;38.92
33153;BME280;19509;43.862;26.176;2023-04-15T12:11:36;100247.38;;;20.66;40.25
33153;BME280;19509;43.862;26.176;2023-04-15T12:14:17;100242.78;;;20.91;36.89
33153;BME280;19509;43.862;26.176;2023-04-15T12:16:45;100238.22;;;21.10;37.49
33153;BME280;19509;43.862;26.176;2023-04-15T12:19:12;100229.91;;;20.91;38.27
33153;BME280;19509;43.862;26.176;2023-04-15T12:21:41;100232.22;;;21.08;37.87
33153;BME280;19509;43.862;26.176;2023-04-15T12:24:09;100232.97;;;21.43;36.88
33153;BME280;19509;43.862;26.176;2023-04-15T12:29:06;100233.63;;;22.02;33.91
33153;BME280;19509;43.862;26.176;2023-04-15T12:31:35;100233.28;;;21.65;35.60
33153;BME280;19509;43.862;26.176;2023-04-15T12:34:01;100223.03;;;21.52;35.26
33153;BME280;19509;43.862;26.176;2023-04-15T12:36:29;100225.84;;;20.89;35.14
33153;BME280;19509;43.862;26.176;2023-04-15T12:39:03;100225.84;;;20.60;36.51
33153;BME280;19509;43.862;26.176;2023-04-15T12:41:30;100222.38;;;20.78;37.25
33153;BME280;19509;43.862;26.176;2023-04-15T12:43:56;100233.38;;;21.31;33.74
33153;BME280;19509;43.862;26.176;2023-04-15T12:46:21;100228.69;;;21.80;35.53
33153;BME280;19509;43.862;26.176;2023-04-15T12:48:47;100223.84;;;21.95;35.17
33153;BME280;19509;43.862;26.176;2023-04-15T12:51:13;100234.72;;;22.01;35.76
33153;BME280;19509;43.862;26.176;2023-04-15T12:53:39;100227.09;;;21.55;33.64